Terminal Aerodrome Forecast
Issued by NWS

Home | Current Version | Previous Version | Text Only | Print | Product List | Glossary On
Versions: 1 2 3 4 5 6 7 8 9 10 11 12 13 14 15 16 17 18 19 20 21 22 23 24 25
000
FTUS45 KGJT 010536
TAFTEX
TAF
KTEX 010536Z 0106/0206 13004KT P6SM SCT110 BKN200
     FM011600 27006KT P6SM FEW100 SCT180
     FM011900 27007KT P6SM SCT080 SCT110 BKN200
     FM020200 14003KT P6SM SCT110 SCT200=

USA.gov is the U.S. government's official web portal to all federal, state and local government web resources and services.